createdAt,value
2023-02-18T00:00:53.247Z,0.00
2023-02-18T00:01:53.235Z,0.00
2023-02-18T00:02:53.277Z,0.00
2023-02-18T00:03:53.361Z,0.00
2023-02-18T00:04:53.229Z,0.00
2023-02-18T00:05:53.224Z,0.00
2023-02-18T00:06:53.204Z,0.00
2023-02-18T00:07:53.237Z,0.00
2023-02-18T00:08:53.223Z,0.00
2023-02-18T00:09:53.202Z,0.00
2023-02-18T00:10:53.209Z,0.00
2023-02-18T00:11:53.205Z,0.00
2023-02-18T00:12:53.168Z,0.00
2023-02-18T00:13:53.173Z,0.00
2023-02-18T00:14:53.145Z,0.00
2023-02-18T00:15:53.201Z,0.00
2023-02-18T00:16:53.227Z,0.00
2023-02-18T00:17:53.130Z,0.00
2023-02-18T00:18:53.120Z,0.00
2023-02-18T00:19:53.119Z,0.00
2023-02-18T00:20:53.122Z,0.00
2023-02-18T00:21:53.097Z,0.00
2023-02-18T00:22:53.071Z,0.00
2023-02-18T00:23:53.108Z,0.00
2023-02-18T00:24:53.175Z,0.00
2023-02-18T00:25:53.082Z,0.00
2023-02-18T00:26:53.180Z,0.00
2023-02-18T00:27:53.040Z,0.00
2023-02-18T00:28:53.077Z,0.00
2023-02-18T00:31:11.696Z,0.00
2023-02-18T00:32:11.775Z,0.00
2023-02-18T00:33:12.835Z,0.00
2023-02-18T00:34:12.801Z,0.00
2023-02-18T00:35:12.763Z,0.00
2023-02-18T00:36:12.878Z,0.00
2023-02-18T00:37:12.784Z,0.00
2023-02-18T00:38:12.840Z,0.00
2023-02-18T00:39:12.813Z,0.00
2023-02-18T00:40:12.737Z,0.00
2023-02-18T00:41:12.725Z,0.00
2023-02-18T00:42:12.718Z,0.00
2023-02-18T00:43:44.605Z,0.00
2023-02-18T00:44:12.717Z,0.00
2023-02-18T00:45:12.685Z,0.00
2023-02-18T00:46:13.679Z,0.00
2023-02-18T00:47:12.695Z,0.00
2023-02-18T00:48:13.366Z,0.00
2023-02-18T00:49:12.831Z,0.00
2023-02-18T00:50:12.735Z,0.00
2023-02-18T00:51:13.607Z,0.00
2023-02-18T00:52:13.608Z,0.00
2023-02-18T00:53:12.653Z,0.00
2023-02-18T00:54:45.035Z,0.00
2023-02-18T00:55:44.656Z,0.00
2023-02-18T00:56:12.689Z,0.00
2023-02-18T00:57:12.607Z,0.00
2023-02-18T00:58:12.662Z,0.00
2023-02-18T00:59:12.639Z,0.00
2023-02-18T01:00:12.629Z,0.00
2023-02-18T01:01:12.667Z,0.00
2023-02-18T01:02:44.491Z,0.00
2023-02-18T01:03:12.590Z,0.00
2023-02-18T01:04:12.552Z,0.00
2023-02-18T01:05:12.567Z,0.00
2023-02-18T01:06:12.512Z,0.00
2023-02-18T01:07:12.534Z,0.00
2023-02-18T01:08:12.543Z,0.00
2023-02-18T01:09:44.448Z,0.00
2023-02-18T01:12:10.114Z,0.00
2023-02-18T01:13:18.172Z,0.00
2023-02-18T01:14:17.135Z,0.00
2023-02-18T01:15:43.230Z,0.00
2023-02-18T01:16:11.679Z,0.00
2023-02-18T01:17:43.667Z,0.00
2023-02-18T01:18:11.251Z,0.00
2023-02-18T01:19:43.118Z,0.00
2023-02-18T01:20:11.228Z,0.00
2023-02-18T01:21:43.145Z,0.00
2023-02-18T01:22:11.192Z,0.00
2023-02-18T01:23:11.203Z,0.00
2023-02-18T01:24:11.212Z,0.00
2023-02-18T01:25:11.201Z,0.00
2023-02-18T01:26:11.539Z,0.00
2023-02-18T01:27:11.180Z,0.00
2023-02-18T01:28:11.175Z,0.00
2023-02-18T01:29:11.133Z,0.00
2023-02-18T01:30:11.197Z,0.00
2023-02-18T01:31:11.265Z,0.00
2023-02-18T01:32:11.202Z,0.00
2023-02-18T01:33:11.233Z,0.00
2023-02-18T01:34:11.116Z,0.00
2023-02-18T01:35:11.079Z,0.00
2023-02-18T01:36:11.343Z,0.00
2023-02-18T01:37:11.082Z,0.00
2023-02-18T01:38:11.070Z,0.00
2023-02-18T01:39:11.079Z,0.00
2023-02-18T01:40:11.026Z,0.00
2023-02-18T01:41:11.061Z,0.00
2023-02-18T01:42:11.031Z,0.00
2023-02-18T01:43:11.071Z,0.00
2023-02-18T01:44:11.024Z,0.00
2023-02-18T01:45:11.001Z,0.00
2023-02-18T01:46:11.236Z,0.00
2023-02-18T01:47:10.980Z,0.00
2023-02-18T01:48:11.007Z,0.00
2023-02-18T01:49:10.972Z,0.00
2023-02-18T01:50:10.949Z,0.00
2023-02-18T01:51:10.942Z,0.00
2023-02-18T01:52:11.003Z,0.00
2023-02-18T01:53:10.934Z,0.00
2023-02-18T01:54:10.952Z,0.00
2023-02-18T01:55:10.936Z,0.00
2023-02-18T01:56:10.929Z,0.00
2023-02-18T01:57:10.935Z,0.00
2023-02-18T01:58:11.200Z,0.00
2023-02-18T01:59:10.930Z,0.00
2023-02-18T02:00:10.904Z,0.00
2023-02-18T02:01:10.964Z,0.00
2023-02-18T02:02:10.916Z,0.00
2023-02-18T02:03:10.884Z,0.00
2023-02-18T02:04:10.887Z,0.00
2023-02-18T02:05:10.915Z,0.00
2023-02-18T02:06:10.831Z,0.00
2023-02-18T02:07:10.832Z,0.00
2023-02-18T02:08:10.829Z,0.00
2023-02-18T02:09:10.860Z,0.00
2023-02-18T02:10:10.796Z,0.00
2023-02-18T02:11:10.787Z,0.00
2023-02-18T02:12:10.811Z,0.00
2023-02-18T02:13:10.801Z,0.00
2023-02-18T02:14:10.809Z,0.00
2023-02-18T02:15:10.765Z,0.00
2023-02-18T02:16:11.093Z,0.00
2023-02-18T02:17:10.780Z,0.00
2023-02-18T02:18:10.733Z,0.00
2023-02-18T02:19:10.718Z,0.00
2023-02-18T02:20:10.807Z,0.00
2023-02-18T02:21:10.718Z,0.00
2023-02-18T02:22:10.717Z,0.00
2023-02-18T02:23:10.739Z,0.00
2023-02-18T02:24:10.784Z,0.00
2023-02-18T02:25:10.702Z,0.00
2023-02-18T02:26:10.679Z,0.00
2023-02-18T02:27:10.696Z,0.00
2023-02-18T02:28:10.671Z,0.00
2023-02-18T02:29:10.670Z,0.00
2023-02-18T02:30:10.648Z,0.00
2023-02-18T02:31:10.724Z,0.00
2023-02-18T02:32:10.647Z,0.00
2023-02-18T02:33:10.623Z,0.00
2023-02-18T02:34:10.619Z,0.00
2023-02-18T02:35:10.614Z,0.00
2023-02-18T02:36:10.634Z,0.00
2023-02-18T02:37:10.709Z,0.00
2023-02-18T02:38:10.672Z,0.00
2023-02-18T02:39:10.578Z,0.00
2023-02-18T02:40:10.570Z,0.00
2023-02-18T02:41:10.594Z,0.00
2023-02-18T02:42:10.622Z,0.00
2023-02-18T02:43:10.576Z,0.00
2023-02-18T02:44:10.596Z,0.00
2023-02-18T02:45:10.574Z,0.00
2023-02-18T02:46:11.171Z,0.00
2023-02-18T02:47:10.543Z,0.00
2023-02-18T02:48:10.562Z,0.00
2023-02-18T02:49:10.597Z,0.00
2023-02-18T02:50:10.518Z,0.00
2023-02-18T02:51:10.512Z,0.00
2023-02-18T02:52:10.503Z,0.00
2023-02-18T02:53:10.503Z,0.00
2023-02-18T02:54:10.543Z,0.00
2023-02-18T02:55:10.488Z,0.00
2023-02-18T02:56:10.624Z,0.00
2023-02-18T02:57:10.478Z,0.00
2023-02-18T02:58:10.463Z,0.00
2023-02-18T02:59:10.473Z,0.00
2023-02-18T03:00:10.490Z,0.00
2023-02-18T03:01:10.447Z,0.00
2023-02-18T03:02:10.469Z,0.00
2023-02-18T03:03:10.451Z,0.00
2023-02-18T03:04:10.425Z,0.00
2023-02-18T03:05:10.416Z,0.00
2023-02-18T03:06:10.439Z,0.00
2023-02-18T03:07:10.399Z,0.00
2023-02-18T03:08:10.347Z,0.00
2023-02-18T03:09:10.373Z,0.00
2023-02-18T03:10:10.369Z,0.00
2023-02-18T03:11:10.341Z,0.00
2023-02-18T03:12:10.362Z,0.00
2023-02-18T03:13:10.326Z,0.00
2023-02-18T03:14:10.294Z,0.00
2023-02-18T03:15:10.345Z,0.00
2023-02-18T03:16:10.663Z,0.00
2023-02-18T03:17:10.309Z,0.00
2023-02-18T03:18:10.271Z,0.00
2023-02-18T03:19:10.251Z,0.00
2023-02-18T03:20:10.270Z,0.00
2023-02-18T03:21:10.281Z,0.00
2023-02-18T03:22:10.265Z,0.00
2023-02-18T03:23:10.239Z,0.00
2023-02-18T03:24:10.237Z,0.00
2023-02-18T03:25:10.298Z,0.00
2023-02-18T03:26:10.535Z,0.00
2023-02-18T03:27:10.281Z,0.00
2023-02-18T03:28:10.217Z,0.00
2023-02-18T03:29:10.193Z,0.00
2023-02-18T03:30:10.289Z,0.00
2023-02-18T03:31:10.263Z,0.00
2023-02-18T03:32:10.318Z,0.00
2023-02-18T03:33:10.183Z,0.00
2023-02-18T03:34:10.225Z,0.00
2023-02-18T03:35:10.152Z,0.00
2023-02-18T03:36:10.433Z,0.00
2023-02-18T03:37:10.135Z,0.00
2023-02-18T03:38:10.144Z,0.00
2023-02-18T03:39:10.148Z,0.00
2023-02-18T03:40:10.141Z,0.00
2023-02-18T03:41:10.132Z,0.00
2023-02-18T03:42:10.102Z,0.00
2023-02-18T03:43:10.118Z,0.00
2023-02-18T03:44:10.108Z,0.00
2023-02-18T03:45:10.075Z,0.00
2023-02-18T03:46:42.002Z,0.00
2023-02-18T04:03:00.069Z,0.00
2023-02-18T04:04:00.117Z,0.00
2023-02-18T04:04:59.982Z,0.00
2023-02-18T04:05:59.979Z,0.00
2023-02-18T04:07:01.183Z,0.00
2023-02-18T04:08:01.106Z,0.00
2023-02-18T04:09:01.078Z,0.00
2023-02-18T04:10:01.089Z,0.00
2023-02-18T04:11:01.117Z,0.00
2023-02-18T04:12:01.085Z,0.00
2023-02-18T04:13:01.090Z,0.00
2023-02-18T04:14:01.078Z,0.00
2023-02-18T04:15:02.034Z,0.00
2023-02-18T04:16:01.042Z,0.00
2023-02-18T04:17:01.669Z,0.00
2023-02-18T04:18:01.006Z,0.00
2023-02-18T04:19:01.006Z,0.00
2023-02-18T04:20:01.232Z,0.00
2023-02-18T04:21:00.977Z,0.00
2023-02-18T04:22:00.965Z,0.00
2023-02-18T04:23:00.990Z,0.00
2023-02-18T04:24:01.006Z,0.00
2023-02-18T04:25:00.953Z,0.00
2023-02-18T04:26:00.950Z,0.00
2023-02-18T04:27:00.926Z,0.00
2023-02-18T04:28:00.947Z,0.00
2023-02-18T04:29:00.922Z,0.00
2023-02-18T04:30:01.031Z,0.00
2023-02-18T04:31:00.992Z,0.00
2023-02-18T04:32:00.961Z,0.00
2023-02-18T04:33:00.890Z,0.00
2023-02-18T04:34:00.884Z,0.00
2023-02-18T04:35:00.894Z,0.00
2023-02-18T04:36:00.914Z,0.00
2023-02-18T04:37:00.875Z,0.00
2023-02-18T04:38:00.871Z,0.00
2023-02-18T04:39:00.875Z,0.00
2023-02-18T04:40:00.946Z,0.00
2023-02-18T04:41:00.900Z,0.00
2023-02-18T04:42:00.872Z,0.00
2023-02-18T04:43:00.880Z,0.00
2023-02-18T04:44:00.858Z,0.00
2023-02-18T04:45:00.811Z,0.00
2023-02-18T04:46:00.870Z,0.00
2023-02-18T04:47:00.798Z,0.00
2023-02-18T04:48:00.794Z,0.00
2023-02-18T04:49:00.790Z,0.00
2023-02-18T04:50:00.785Z,0.00
2023-02-18T04:51:00.783Z,0.00
2023-02-18T04:52:00.766Z,0.00
2023-02-18T04:53:00.743Z,0.00
2023-02-18T04:54:00.787Z,0.00
2023-02-18T04:55:00.782Z,0.00
2023-02-18T04:56:00.745Z,0.00
2023-02-18T04:57:00.771Z,0.00
2023-02-18T04:58:00.731Z,0.00
2023-02-18T04:59:00.701Z,0.00
2023-02-18T05:00:00.689Z,0.00
2023-02-18T05:01:00.764Z,0.00
2023-02-18T05:02:00.661Z,0.00
2023-02-18T05:03:01.529Z,0.00
2023-02-18T05:04:00.706Z,0.00
2023-02-18T05:05:00.661Z,0.00
2023-02-18T05:06:00.631Z,0.00
2023-02-18T05:07:00.629Z,0.00
2023-02-18T05:08:00.642Z,0.00
2023-02-18T05:09:00.649Z,0.00
2023-02-18T05:10:00.620Z,0.00
2023-02-18T05:11:00.627Z,0.00
2023-02-18T05:12:00.601Z,0.00
2023-02-18T05:13:00.604Z,0.00
2023-02-18T05:14:00.628Z,0.00
2023-02-18T05:15:00.588Z,0.00
2023-02-18T05:16:00.680Z,0.00
2023-02-18T05:17:00.569Z,0.00
2023-02-18T05:18:00.535Z,0.00
2023-02-18T05:19:00.577Z,0.00
2023-02-18T05:20:00.548Z,0.00
2023-02-18T05:21:00.537Z,0.00
2023-02-18T05:22:00.511Z,0.00
2023-02-18T05:23:00.526Z,0.00
2023-02-18T05:24:00.528Z,0.00
2023-02-18T05:25:00.515Z,0.00
2023-02-18T05:26:00.489Z,0.00
2023-02-18T05:27:00.489Z,0.00
2023-02-18T05:28:00.484Z,0.00
2023-02-18T05:29:00.457Z,0.00
2023-02-18T05:30:00.528Z,0.00
2023-02-18T05:31:00.550Z,0.00
2023-02-18T05:32:00.557Z,0.00
2023-02-18T05:33:00.444Z,0.00
2023-02-18T05:34:00.457Z,0.00
2023-02-18T05:35:00.433Z,0.00
2023-02-18T05:36:00.495Z,0.00
2023-02-18T05:37:00.429Z,0.00
2023-02-18T05:38:00.422Z,0.00
2023-02-18T05:39:00.462Z,0.00
2023-02-18T05:40:00.383Z,0.00
2023-02-18T05:41:00.377Z,0.00
2023-02-18T05:42:00.426Z,0.00
2023-02-18T05:43:00.364Z,0.00
2023-02-18T05:44:00.410Z,0.00
2023-02-18T05:45:00.350Z,0.00
2023-02-18T05:46:00.497Z,0.00
2023-02-18T05:47:00.345Z,0.00
2023-02-18T05:48:00.338Z,0.00
2023-02-18T05:49:00.342Z,0.00
2023-02-18T05:50:00.302Z,0.00
2023-02-18T05:51:00.314Z,0.00
2023-02-18T05:52:00.303Z,0.00
2023-02-18T05:53:00.288Z,0.00
2023-02-18T05:54:00.344Z,0.00
2023-02-18T05:55:00.264Z,0.00
2023-02-18T05:56:00.254Z,0.00
2023-02-18T05:57:00.327Z,0.00
2023-02-18T05:58:00.275Z,0.00
2023-02-18T05:59:00.326Z,0.00
2023-02-18T06:00:00.466Z,0.00
2023-02-18T06:01:01.268Z,0.00
2023-02-18T06:02:00.198Z,0.00
2023-02-18T06:03:00.331Z,0.00
2023-02-18T06:04:00.197Z,0.00
2023-02-18T06:05:00.233Z,0.00
2023-02-18T06:06:00.258Z,0.00
2023-02-18T06:07:00.165Z,0.00
2023-02-18T06:08:00.212Z,4.00
2023-02-18T06:09:00.162Z,4.00
2023-02-18T06:10:00.262Z,4.00
2023-02-18T06:11:00.153Z,4.00
2023-02-18T06:12:00.134Z,4.00
2023-02-18T06:13:00.162Z,4.00
2023-02-18T06:14:00.112Z,4.00
2023-02-18T06:15:00.175Z,4.00
2023-02-18T06:16:00.139Z,8.00
2023-02-18T06:17:00.111Z,4.00
2023-02-18T06:18:00.261Z,8.00
2023-02-18T06:19:00.134Z,8.00
2023-02-18T06:20:00.074Z,12.00
2023-02-18T06:21:04.149Z,12.00
2023-02-18T06:22:00.051Z,12.00
2023-02-18T06:23:00.021Z,16.00
2023-02-18T06:24:00.078Z,16.00
2023-02-18T06:25:00.017Z,20.00
2023-02-18T06:26:00.057Z,20.00
2023-02-18T06:27:00.058Z,28.00
2023-02-18T06:28:00.002Z,32.00
2023-02-18T06:29:00.013Z,40.00
2023-02-18T06:30:31.918Z,40.00
2023-02-18T06:31:00.121Z,44.00
2023-02-18T06:32:00.206Z,44.00
2023-02-18T06:32:59.941Z,44.00
2023-02-18T06:33:59.981Z,48.00
2023-02-18T06:34:59.915Z,52.00
2023-02-18T06:35:59.919Z,60.00
2023-02-18T06:37:01.302Z,68.00
2023-02-18T06:38:00.910Z,72.00
2023-02-18T06:38:59.896Z,76.00
2023-02-18T06:39:59.912Z,84.00
2023-02-18T06:40:59.886Z,88.00
2023-02-18T06:41:59.897Z,104.00
2023-02-18T06:42:59.872Z,104.00
2023-02-18T06:44:00.585Z,104.00
2023-02-18T06:45:00.748Z,104.00
2023-02-18T06:45:59.846Z,104.00
2023-02-18T06:46:59.869Z,100.00
2023-02-18T06:47:59.894Z,104.00
2023-02-18T06:48:59.813Z,112.00
2023-02-18T06:49:59.806Z,116.00
2023-02-18T06:50:59.797Z,124.00
2023-02-18T06:51:59.897Z,132.00
2023-02-18T06:52:59.829Z,152.00
2023-02-18T06:53:59.794Z,168.00
2023-02-18T06:54:59.768Z,176.00
2023-02-18T06:55:59.750Z,188.00
2023-02-18T06:56:59.784Z,212.00
2023-02-18T06:57:59.755Z,208.00
2023-02-18T06:58:59.813Z,220.00
2023-02-18T06:59:59.722Z,248.00
2023-02-18T07:00:59.738Z,260.00
2023-02-18T07:01:59.719Z,264.00
2023-02-18T07:02:59.729Z,268.00
2023-02-18T07:03:59.819Z,292.00
2023-02-18T07:04:59.728Z,292.00
2023-02-18T07:05:59.680Z,300.00
2023-02-18T07:06:59.687Z,304.00
2023-02-18T07:07:59.657Z,304.00
2023-02-18T07:08:59.689Z,304.00
2023-02-18T07:09:59.652Z,304.00
2023-02-18T07:10:59.671Z,312.00
2023-02-18T07:11:59.634Z,308.00
2023-02-18T07:12:59.630Z,332.00
2023-02-18T07:13:59.644Z,316.00
2023-02-18T07:14:59.634Z,344.00
2023-02-18T07:15:59.688Z,344.00
2023-02-18T07:16:59.608Z,324.00
2023-02-18T07:17:59.591Z,332.00
2023-02-18T07:18:59.589Z,336.00
2023-02-18T07:19:59.630Z,356.00
2023-02-18T07:20:59.585Z,384.00
2023-02-18T07:21:59.566Z,376.00
2023-02-18T07:22:59.552Z,384.00
2023-02-18T07:23:59.553Z,380.00
2023-02-18T07:24:59.557Z,384.00
2023-02-18T07:25:59.815Z,384.00
2023-02-18T07:27:00.134Z,412.00
2023-02-18T07:27:59.512Z,432.00
2023-02-18T07:28:59.551Z,428.00
2023-02-18T07:29:59.514Z,452.00
2023-02-18T07:30:59.567Z,468.00
2023-02-18T07:31:59.547Z,504.00
2023-02-18T07:32:59.479Z,476.00
2023-02-18T07:33:59.458Z,436.00
2023-02-18T07:34:59.459Z,412.00
2023-02-18T07:35:59.471Z,412.00
2023-02-18T07:37:00.224Z,404.00
2023-02-18T07:37:59.468Z,424.00
2023-02-18T07:38:59.416Z,440.00
2023-02-18T07:39:59.429Z,412.00
2023-02-18T07:40:59.415Z,404.00
2023-02-18T07:41:59.424Z,384.00
2023-02-18T07:42:59.434Z,396.00
2023-02-18T07:43:59.397Z,384.00
2023-02-18T07:44:59.400Z,392.00
2023-02-18T07:45:59.434Z,440.00
2023-02-18T07:46:59.371Z,456.00
2023-02-18T07:47:59.385Z,472.00
2023-02-18T07:48:59.362Z,500.00
2023-02-18T07:49:59.348Z,544.00
2023-02-18T07:50:59.338Z,600.00
2023-02-18T07:51:59.364Z,588.00
2023-02-18T07:52:59.377Z,592.00
2023-02-18T07:53:59.337Z,580.00
2023-02-18T07:54:59.322Z,552.00
2023-02-18T07:55:59.329Z,592.00
2023-02-18T07:56:59.281Z,628.00
2023-02-18T07:57:59.304Z,580.00
2023-02-18T07:58:59.271Z,536.00
2023-02-18T07:59:59.259Z,528.00
2023-02-18T08:00:59.271Z,512.00
2023-02-18T08:01:59.291Z,508.00
2023-02-18T08:02:59.293Z,524.00
2023-02-18T08:03:59.266Z,512.00
2023-02-18T08:04:59.287Z,516.00
2023-02-18T08:05:59.226Z,524.00
2023-02-18T08:06:59.209Z,496.00
2023-02-18T08:07:59.199Z,492.00
2023-02-18T08:08:59.282Z,504.00
2023-02-18T08:09:59.205Z,528.00
2023-02-18T08:11:01.049Z,544.00
2023-02-18T08:11:59.206Z,536.00
2023-02-18T08:12:59.155Z,524.00
2023-02-18T08:13:59.154Z,544.00
2023-02-18T08:14:59.170Z,572.00
2023-02-18T08:15:59.162Z,544.00
2023-02-18T08:16:59.203Z,544.00
2023-02-18T08:17:59.149Z,568.00
2023-02-18T08:18:59.133Z,592.00
2023-02-18T08:19:59.111Z,604.00
2023-02-18T08:21:00.108Z,584.00
2023-02-18T08:21:59.099Z,548.00
2023-02-18T08:22:59.088Z,536.00
2023-02-18T08:23:59.103Z,560.00
2023-02-18T08:24:59.106Z,568.00
2023-02-18T08:25:59.119Z,572.00
2023-02-18T08:27:01.077Z,568.00
2023-02-18T08:28:00.063Z,568.00
2023-02-18T08:28:59.050Z,560.00
2023-02-18T08:29:59.090Z,600.00
2023-02-18T08:30:59.103Z,620.00
2023-02-18T08:31:59.090Z,628.00
2023-02-18T08:32:59.018Z,628.00
2023-02-18T08:33:59.022Z,688.00
2023-02-18T08:34:59.000Z,776.00
2023-02-18T08:35:59.008Z,704.00
2023-02-18T08:36:58.984Z,700.00
2023-02-18T08:37:58.962Z,708.00
2023-02-18T08:38:59.594Z,692.00
2023-02-18T08:39:58.991Z,704.00
2023-02-18T08:40:58.972Z,796.00
2023-02-18T08:41:59.000Z,744.00
2023-02-18T08:42:59.994Z,716.00
2023-02-18T08:43:58.932Z,728.00
2023-02-18T08:44:58.934Z,676.00
2023-02-18T08:45:58.949Z,664.00
2023-02-18T08:46:58.909Z,676.00
2023-02-18T08:48:18.755Z,676.00
2023-02-18T08:48:59.931Z,664.00
2023-02-18T08:49:58.897Z,612.00
2023-02-18T08:50:58.899Z,636.00
2023-02-18T08:51:58.890Z,620.00
2023-02-18T08:52:58.852Z,636.00
2023-02-18T08:53:58.851Z,708.00
2023-02-18T08:54:58.845Z,636.00
2023-02-18T08:55:58.861Z,676.00
2023-02-18T08:56:58.861Z,768.00
2023-02-18T08:57:58.854Z,756.00
2023-02-18T08:58:58.818Z,692.00
2023-02-18T08:59:58.826Z,668.00
2023-02-18T09:00:58.825Z,684.00
2023-02-18T09:01:58.794Z,724.00
2023-02-18T09:02:58.841Z,724.00
2023-02-18T09:03:58.820Z,728.00
2023-02-18T09:04:58.761Z,736.00
2023-02-18T09:05:58.766Z,752.00
2023-02-18T09:06:58.764Z,820.00
2023-02-18T09:07:58.782Z,848.00
2023-02-18T09:08:58.768Z,940.00
2023-02-18T09:09:58.721Z,956.00
2023-02-18T09:10:59.755Z,988.00
2023-02-18T09:11:58.749Z,1040.00
2023-02-18T09:12:58.760Z,1028.00
2023-02-18T09:13:58.738Z,972.00
2023-02-18T09:14:58.693Z,1000.00
2023-02-18T09:15:58.737Z,1056.00
2023-02-18T09:16:58.710Z,1056.00
2023-02-18T09:17:58.662Z,1080.00
2023-02-18T09:18:58.726Z,1048.00
2023-02-18T09:19:58.658Z,988.00
2023-02-18T09:20:58.644Z,992.00
2023-02-18T09:22:00.720Z,1012.00
2023-02-18T09:22:59.656Z,1072.00
2023-02-18T09:23:58.674Z,1048.00
2023-02-18T09:24:58.636Z,1040.00
2023-02-18T09:25:58.623Z,1052.00
2023-02-18T09:26:58.591Z,1048.00
2023-02-18T09:27:59.257Z,1128.00
2023-02-18T09:28:58.586Z,1216.00
2023-02-18T09:29:58.667Z,1200.00
2023-02-18T09:30:58.655Z,1264.00
2023-02-18T09:31:58.588Z,1316.00
2023-02-18T09:32:58.608Z,1308.00
2023-02-18T09:33:58.549Z,1292.00
2023-02-18T09:34:58.542Z,1228.00
2023-02-18T09:35:58.565Z,1256.00
2023-02-18T09:36:58.528Z,1228.00
2023-02-18T09:37:58.533Z,1252.00
2023-02-18T09:38:58.601Z,1260.00
2023-02-18T09:39:59.256Z,1304.00
2023-02-18T09:40:58.509Z,1532.00
2023-02-18T09:41:58.489Z,1536.00
2023-02-18T09:42:58.461Z,1472.00
2023-02-18T09:43:58.459Z,1508.00
2023-02-18T09:44:58.446Z,1540.00
2023-02-18T09:45:58.495Z,1584.00
2023-02-18T09:46:58.517Z,1692.00
2023-02-18T09:47:58.426Z,1896.00
2023-02-18T09:48:58.415Z,2028.00
2023-02-18T09:49:58.419Z,2164.00
2023-02-18T09:50:58.403Z,2140.00
2023-02-18T09:51:58.408Z,2212.00
2023-02-18T09:52:58.423Z,2392.00
2023-02-18T09:53:58.373Z,2376.00
2023-02-18T09:54:58.364Z,2324.00
2023-02-18T09:55:58.358Z,2172.00
2023-02-18T09:56:58.366Z,2060.00
2023-02-18T09:57:58.372Z,2032.00
2023-02-18T09:58:58.338Z,2056.00
2023-02-18T09:59:58.363Z,1872.00
2023-02-18T10:00:58.335Z,1940.00
2023-02-18T10:01:58.367Z,2104.00
2023-02-18T10:02:58.343Z,1928.00
2023-02-18T10:03:58.315Z,1712.00
2023-02-18T10:04:58.312Z,1632.00
2023-02-18T10:05:58.351Z,1552.00
2023-02-18T10:06:58.333Z,1480.00
2023-02-18T10:07:58.289Z,1308.00
2023-02-18T10:08:58.279Z,1320.00
2023-02-18T10:09:58.311Z,1408.00
2023-02-18T10:10:58.291Z,1392.00
2023-02-18T10:11:58.292Z,1192.00
2023-02-18T10:12:58.227Z,1040.00
2023-02-18T10:13:58.230Z,1128.00
2023-02-18T10:14:58.257Z,1104.00
2023-02-18T10:15:58.280Z,1080.00
2023-02-18T10:16:58.234Z,1096.00
2023-02-18T10:17:58.230Z,988.00
2023-02-18T10:18:58.232Z,1004.00
2023-02-18T10:19:58.204Z,948.00
2023-02-18T10:20:58.339Z,952.00
2023-02-18T10:21:58.204Z,1096.00
2023-02-18T10:22:58.185Z,1196.00
2023-02-18T10:23:58.267Z,1380.00
2023-02-18T10:24:59.220Z,1520.00
2023-02-18T10:25:58.297Z,1824.00
2023-02-18T10:26:58.133Z,2044.00
2023-02-18T10:27:58.206Z,2188.00
2023-02-18T10:28:58.111Z,2096.00
2023-02-18T10:29:58.162Z,1808.00
2023-02-18T10:30:58.223Z,1708.00
2023-02-18T10:31:58.194Z,1776.00
2023-02-18T10:32:58.123Z,1784.00
2023-02-18T10:33:58.159Z,1912.00
2023-02-18T10:35:00.256Z,1936.00
2023-02-18T10:35:59.077Z,1916.00
2023-02-18T10:36:58.057Z,2044.00
2023-02-18T10:37:58.071Z,2300.00
2023-02-18T10:38:58.083Z,2296.00
2023-02-18T10:39:58.059Z,2480.00
2023-02-18T10:40:59.888Z,2952.00
2023-02-18T10:41:59.031Z,3164.00
2023-02-18T10:42:58.071Z,3120.00
2023-02-18T10:43:57.994Z,2968.00
2023-02-18T10:44:58.003Z,2964.00
2023-02-18T10:45:58.009Z,2908.00
2023-02-18T10:46:58.015Z,2756.00
2023-02-18T10:47:58.023Z,2532.00
2023-02-18T10:48:57.983Z,2440.00
2023-02-18T10:49:57.968Z,2336.00
2023-02-18T10:50:57.956Z,2156.00
2023-02-18T10:51:58.000Z,1960.00
2023-02-18T10:52:57.983Z,1896.00
2023-02-18T10:53:58.050Z,1876.00
2023-02-18T10:54:57.933Z,1816.00
2023-02-18T10:55:57.941Z,1748.00
2023-02-18T10:56:57.929Z,1784.00
2023-02-18T10:57:57.881Z,1664.00
2023-02-18T10:58:57.872Z,1680.00
2023-02-18T10:59:58.001Z,1624.00
2023-02-18T11:00:57.883Z,1560.00
2023-02-18T11:01:57.943Z,1628.00
2023-02-18T11:02:57.858Z,1616.00
2023-02-18T11:03:57.846Z,1520.00
2023-02-18T11:04:57.890Z,1488.00
2023-02-18T11:05:57.864Z,1656.00
2023-02-18T11:06:57.941Z,1748.00
2023-02-18T11:07:57.811Z,1824.00
2023-02-18T11:08:57.810Z,1736.00
2023-02-18T11:09:57.823Z,1596.00
2023-02-18T11:10:57.791Z,1640.00
2023-02-18T11:12:07.785Z,1888.00
2023-02-18T11:12:59.770Z,1956.00
2023-02-18T11:13:57.766Z,1904.00
2023-02-18T11:14:57.792Z,1800.00
2023-02-18T11:15:57.865Z,1600.00
2023-02-18T11:16:57.737Z,1468.00
2023-02-18T11:17:57.733Z,1364.00
2023-02-18T11:18:57.742Z,1308.00
2023-02-18T11:19:57.745Z,1300.00
2023-02-18T11:20:57.716Z,1252.00
2023-02-18T11:21:57.702Z,1156.00
2023-02-18T11:22:57.714Z,1092.00
2023-02-18T11:23:57.825Z,1060.00
2023-02-18T11:24:57.718Z,1028.00
2023-02-18T11:25:57.702Z,944.00
2023-02-18T11:26:57.663Z,924.00
2023-02-18T11:27:57.645Z,928.00
2023-02-18T11:28:57.672Z,884.00
2023-02-18T11:29:57.668Z,888.00
2023-02-18T11:30:57.696Z,916.00
2023-02-18T11:31:57.673Z,848.00
2023-02-18T11:32:57.625Z,828.00
2023-02-18T11:33:57.630Z,824.00
2023-02-18T11:34:57.629Z,828.00
2023-02-18T11:35:57.605Z,780.00
2023-02-18T11:36:58.285Z,812.00
2023-02-18T11:37:57.574Z,836.00
2023-02-18T11:38:57.591Z,828.00
2023-02-18T11:39:57.560Z,768.00
2023-02-18T11:40:57.585Z,788.00
2023-02-18T11:41:57.575Z,784.00
2023-02-18T11:42:57.527Z,780.00
2023-02-18T11:43:57.564Z,724.00
2023-02-18T11:44:57.530Z,712.00
2023-02-18T11:45:57.506Z,736.00
2023-02-18T11:46:57.547Z,744.00
2023-02-18T11:47:57.592Z,768.00
2023-02-18T11:48:57.538Z,816.00
2023-02-18T11:49:57.501Z,856.00
2023-02-18T11:50:57.484Z,924.00
2023-02-18T11:51:57.499Z,968.00
2023-02-18T11:52:57.514Z,1088.00
2023-02-18T11:53:57.512Z,1260.00
2023-02-18T11:54:58.404Z,1320.00
2023-02-18T11:55:57.453Z,1524.00
2023-02-18T11:56:57.474Z,1320.00
2023-02-18T11:57:57.484Z,1120.00
2023-02-18T11:58:57.426Z,1140.00
2023-02-18T11:59:57.430Z,1264.00
2023-02-18T12:00:57.428Z,1664.00
2023-02-18T12:01:58.357Z,2148.00
2023-02-18T12:02:57.395Z,2472.00
2023-02-18T12:03:57.392Z,2816.00
2023-02-18T12:04:58.391Z,3500.00
2023-02-18T12:05:57.388Z,3920.00
2023-02-18T12:06:57.359Z,3908.00
2023-02-18T12:07:58.191Z,3796.00
2023-02-18T12:08:57.359Z,3572.00
2023-02-18T12:09:58.224Z,3508.00
2023-02-18T12:10:57.356Z,3204.00
2023-02-18T12:11:59.854Z,3088.00
2023-02-18T12:12:58.311Z,2764.00
2023-02-18T12:13:57.312Z,2368.00
2023-02-18T12:14:57.332Z,2244.00
2023-02-18T12:15:57.287Z,2568.00
2023-02-18T12:16:57.320Z,2752.00
2023-02-18T12:17:57.314Z,2784.00
2023-02-18T12:18:57.426Z,2876.00
2023-02-18T12:19:57.289Z,2604.00
2023-02-18T12:20:57.253Z,2500.00
2023-02-18T12:21:57.254Z,2468.00
2023-02-18T12:22:57.813Z,2408.00
2023-02-18T12:23:57.780Z,2380.00
2023-02-18T12:24:57.261Z,2268.00
2023-02-18T12:25:57.223Z,2400.00
2023-02-18T12:26:57.239Z,2424.00
2023-02-18T12:27:57.190Z,2480.00
2023-02-18T12:29:29.602Z,2452.00
2023-02-18T12:30:29.220Z,2368.00
2023-02-18T12:30:57.187Z,2000.00
2023-02-18T12:31:57.209Z,1900.00
2023-02-18T12:32:57.248Z,1944.00
2023-02-18T12:33:57.145Z,2040.00
2023-02-18T12:34:57.133Z,2140.00
2023-02-18T12:35:57.171Z,2492.00
2023-02-18T12:36:57.143Z,2700.00
2023-02-18T12:37:57.150Z,2964.00
2023-02-18T12:38:57.121Z,3108.00
2023-02-18T12:39:58.133Z,3268.00
2023-02-18T12:40:57.275Z,3216.00
2023-02-18T12:41:57.106Z,3208.00
2023-02-18T12:42:57.093Z,2756.00
2023-02-18T12:43:57.103Z,2324.00
2023-02-18T12:44:57.080Z,2260.00
2023-02-18T12:45:57.148Z,2660.00
2023-02-18T12:46:57.094Z,2836.00
2023-02-18T12:47:57.034Z,2956.00
2023-02-18T12:48:57.036Z,2764.00
2023-02-18T12:49:57.146Z,2684.00
2023-02-18T12:50:57.027Z,2684.00
2023-02-18T12:51:57.063Z,2996.00
2023-02-18T12:52:57.090Z,3424.00
2023-02-18T12:53:57.095Z,3520.00
2023-02-18T12:54:57.009Z,2972.00
2023-02-18T12:55:57.003Z,2712.00
2023-02-18T12:56:57.028Z,2644.00
2023-02-18T12:57:57.051Z,2684.00
2023-02-18T12:58:56.981Z,2764.00
2023-02-18T12:59:56.975Z,2756.00
2023-02-18T13:00:56.957Z,2912.00
2023-02-18T13:01:57.036Z,2844.00
2023-02-18T13:02:56.996Z,2464.00
2023-02-18T13:03:56.994Z,2444.00
2023-02-18T13:04:57.897Z,2716.00